Startpagina
METAR-TAF:

METAR-TAF

Vliegvelden :

Tingo María, Peru

breedte: 09-17-15S, lengte: 076-00-18W, hoogte: 654 m

Actueel weer

Dit bericht is 3 uur en het 17 minuten geleden gemaakt, om 21:00 UTC
Wind 3 kt uit het noordnoordoosten
Temperatuur 27°C
Vochtigheid 70%
Druk 1013 hPa
Zicht 10 km of meer
Weinig wolken op 4000 ft

METAR: SPGM 202100Z 03003KT 9999 FEW040 27/21 Q1013 RMK BIRD HAZARD RWY 19 TX28.8 PP000

Tijdstip: 19:17 (00:17 UTC)

Verwachting

Dit bericht is 7 uur en het 17 minuten geleden gemaakt, om 17:00 UTC
Verwachting geldig van 20 om 18 UTC tot 21 om 18 UTC
Wind 5 kt uit het noordnoordoosten
Zicht 10 km of meer
Weinig wolken op 4000 ft
Gebroken wolken op 11000 ft
Tijdelijke
van 21 om 12 UTC tot 21 om 14 UTC
Wind kt uit het noorden
Zicht: 3000 m
Verspreide wolken op 1500 ft
Gebroken wolken op 7000 ft
nevel

TAF: SPGM 201700Z 2018/2118 03005KT 9999 FEW040 BKN110 TX32/2019Z TN20/2111Z TEMPO 2112/2114 00000KT 3000 BR SCT015 BKN070

Waarnemingen en weersverwachtingen van meer dan 4000 vliegvelden (METAR en TAF).

De beschikbare stations zijn de gele en rode punten op de kaart.

Ga met uw muis naar het station om de naam te zien.

Klik dan om waarnemingen en weersverwachtingen te zien.

kaart wijzigen: klik op de groene knoppen met een zwart kruis om in te zoomen, op de groene knop met een streepje om uit te zoomen of op de groene pijlen voor aangrenzende kaarten.


METAR-TAF: